Glass, Virginia
Current Conditions -  °F | °C
As of 4:54 PM on Saturday 25 Oct 2014 (Local Time) from KPHF Reporting Station
Clear Clear  
Wind Chill: 70°   Ceiling: Unl
Heat Index: 70°   Visibility: 10mi
Dew Point: 42°   Wind: 8mph
Humidity: 36%   Direction: 220°SW
Pressure: 29.84"   Gusts: NA
Location:  37.3028°N, 76.4825°W
Report Text: KPHF 252054Z 22007KT 10SM CLR 21/06 A2984 RMK AO2 SLP105 T02110056 56018
Loading
Personal Weather Stations






























Interactive Weather Map
Tropical Storm Tracking
New forecast layout! Learn more

10-Day Weather Forecast

Advertisements
Track Severe Weather on mobile